Nederland, CO

4:05 PM MDT on September 23, 2014 (GMT -0600)
Erie Municipal Airport | Change Station
CLOSE
Current Station
Airport
Location: Erie,
Elevation: 5128 ft
Nearby Weather Stations

Elev 5128 ft 40.01 °N, 105.05 °W | Updated 10 minutes ago

Mostly Cloudy
Mostly Cloudy
78 °F
Feels Like 78 °F
N
8
Wind Variable Wind from West
Gusts 23 mph

Today
High -- | Low -- °F
--% Chance of Precip.
Yesterday
High -- | Low -- °F
Precip. -- in
6:50 AM 6:57 PM
Waning Crescent, 0% visible
Pressure 30.11 in
Visibility 10.0 miles
Clouds Scattered Clouds 10000 ft
Mostly Cloudy 12000 ft
Dew Point 39 °F
Humidity 25%
Rainfall 0.00 in
Snow Depth 0 in , 0 in , 4 in
UV 2 out of 12
Pollen 6.10 out of 12
Ozone Good
PM2.5 Good
Flu Activity Not available.
METAR KEIK 232155Z AUTO 26007G20KT 10SM SCT100 BKN120 26/04 A3011 RMK AO2 LTG DSNT W T02550041

More Conditions Fewer Conditions

Pressure 30.11 in
Visibility 10.0 miles
Clouds Scattered Clouds 10000 ft
Mostly Cloudy 12000 ft
Dew Point 39 °F
Humidity 25%
Rainfall 0.00 in
Snow Depth 0 in , 0 in , 4 in
UV 2 out of 12
Pollen 6.10 out of 12
Ozone Good
PM2.5 Good
Flu Activity Not available.
METAR KEIK 232155Z AUTO 26007G20KT 10SM SCT100 BKN120 26/04 A3011 RMK AO2 LTG DSNT W T02550041

More Conditions Fewer Conditions

10-Day Weather Forecast

Almanac

Astronomy

Sep. 23, 2014 Rise Set
Actual Time 6:50 AM MDT 6:57 PM MDT
Civil Twilight 6:23 AM MDT 7:24 PM MDT
Nautical Twilight 5:51 AM MDT 7:55 PM MDT
Astronomical Twilight 5:19 AM MDT 8:27 PM MDT
Moon 6:17 AM MDT 6:37 PM MDT
Length of Visible Light 13h 00m
Length of Day
12h 06m
Tomorrow will be 2m 36s shorter.
Waning Crescent, 0% of the Moon is Illuminated
Today
Waning Crescent
Sep 24
New
Oct 1
First Quarter
Oct 8
Full
Oct 15
Last Quarter

Today's Extremes

State Highs State Lows

Community

WunderPhotos

Upload Photos

1,755,800 photos uploaded!

WunderBlogs® & News

Nearby

Air Quality

  Air Quality AQ Index Pollutant
Yesterday Good
OZONE
Yesterday Good
PM10
Current Good
OZONE
Current Good
PM2.5
Tuesday Good
OZONE
Tuesday Good
PM2.5
Wednesday Good
OZONE
Wednesday Good
PM2.5

Snow Depth

Station Depth Elevation
Jones Pass 0 in 10400 ft
Spud Mountain 0 in 10660 ft
Rawah 4 in 9020 ft
Tower 0 in 10500 ft
Berthoud Summit 0 in 11300 ft

Earthquake Activity

City Distance Mag. Time & Date
No recent earthquake activity has been reported nearby.
Minimum magnitude displayed is 2.5.

Coastal Water Temperatures

Place Temperature
No Stations Reporting

Nearby Weather Stations